Time;durP1;ratioP1;P1;durP2;ratioP2;P2;SDS_P1;SDS_P2;PMS_P1;PMS_P2;Temp;Humidity;BMP_temperature;BMP_pressure;BME280_temperature;BME280_humidity;BME280_pressure;Samples;Min_cycle;Max_cycle;Signal;HPM_P1;HPM_P2
2022/07/07 00:01:22;;;;;;;;;;;;;;;;;;4988035;28;20302;-57
2022/07/07 00:03:48;;;;;;;;;;;;;;;;;;4987732;28;20444;-58
2022/07/07 00:06:14;;;;;;;;;;;;;;;;;;4987912;28;20367;-58
2022/07/07 00:08:40;;;;;;;;;;;;;;;;;;4988504;28;19929;-58
2022/07/07 00:11:06;;;;;;;;;;;;;;;;;;4988268;28;19965;-58
2022/07/07 00:13:32;;;;;;;;;;;;;;;;;;4969831;28;19925;-58
2022/07/07 00:15:58;;;;;;;;;;;;;;;;;;4987767;28;19929;-58
2022/07/07 00:18:24;;;;;;;;;;;;;;;;;;4986582;28;20402;-58
2022/07/07 00:20:50;;;;;;;;;;;;;;;;;;4970474;28;19922;-58
2022/07/07 00:23:16;;;;;;;;;;;;;;;;;;4987532;28;19921;-57
2022/07/07 00:25:42;;;;;;;;;;;;;;;;;;4987631;28;19929;-58
2022/07/07 00:28:08;;;;;;;;;;;;;;;;;;4987386;28;20272;-58
2022/07/07 00:30:34;;;;;;;;;;;;;;;;;;4987149;28;19940;-58
2022/07/07 00:33:00;;;;;;;;;;;;;;;;;;4987145;28;19922;-58
2022/07/07 00:35:26;;;;;;;;;;;;;;;;;;4987274;28;19997;-57
2022/07/07 00:37:52;;;;;;;;;;;;;;;;;;4987602;28;19928;-58
2022/07/07 00:40:18;;;;;;;;;;;;;;;;;;4987223;28;19929;-58
2022/07/07 00:42:44;;;;;;;;;;;;;;;;;;4987171;28;19967;-58
2022/07/07 00:45:10;;;;;;;;;;;;;;;;;;4986763;28;19968;-57
2022/07/07 00:47:37;;;;;;;;;;;;;;;;;;4987044;28;20360;-57
2022/07/07 00:50:03;;;;;;;;;;;;;;;;;;4987135;28;19921;-58
2022/07/07 00:52:29;;;;;;;;;;;;;;;;;;4987011;28;19928;-57
2022/07/07 00:54:56;;;;;;;;;;;;;;;;;;4987265;28;19921;-58
2022/07/07 00:57:22;;;;;;;;;;;;;;;;;;4986395;28;19925;-58
2022/07/07 00:59:47;;;;;;;;;;;;;;;;;;4986284;28;20409;-57
2022/07/07 01:02:13;;;;;;;;;;;;;;;;;;4986967;28;19921;-58
2022/07/07 01:04:39;;;;;;;;;;;;;;;;;;4987642;28;20306;-57
2022/07/07 01:07:05;;;;;;;;;;;;;;;;;;4987225;28;19922;-58
2022/07/07 01:09:31;;;;;;;;;;;;;;;;;;4986721;28;19925;-58
2022/07/07 01:11:57;;;;;;;;;;;;;;;;;;4986900;28;19922;-58
2022/07/07 01:14:23;;;;;;;;;;;;;;;;;;4968032;28;19921;-57
2022/07/07 01:16:49;;;;;;;;;;;;;;;;;;4986477;28;19922;-58
2022/07/07 01:19:15;;;;;;;;;;;;;;;;;;4986737;28;19952;-58
2022/07/07 01:21:41;;;;;;;;;;;;;;;;;;4987087;28;19933;-58
2022/07/07 01:24:07;;;;;;;;;;;;;;;;;;4987284;28;19953;-58
2022/07/07 01:26:33;;;;;;;;;;;;;;;;;;4986407;28;20722;-58
2022/07/07 01:28:59;;;;;;;;;;;;;;;;;;4986132;28;19921;-58
2022/07/07 01:31:26;;;;;;;;;;;;;;;;;;4986672;28;19929;-58
2022/07/07 01:33:52;;;;;;;;;;;;;;;;;;4969115;28;19975;-58
2022/07/07 01:36:18;;;;;;;;;;;;;;;;;;4986857;28;20012;-58
2022/07/07 01:38:44;;;;;;;;;;;;;;;;;;4987104;28;19928;-58
2022/07/07 01:41:10;;;;;;;;;;;;;;;;;;4986625;28;19929;-58
2022/07/07 01:43:36;;;;;;;;;;;;;;;;;;4986066;28;20475;-58
2022/07/07 01:46:02;;;;;;;;;;;;;;;;;;4986688;28;20401;-58
2022/07/07 01:48:28;;;;;;;;;;;;;;;;;;4986563;28;19922;-58
2022/07/07 01:50:54;;;;;;;;;;;;;;;;;;4986607;28;19918;-58
2022/07/07 01:53:20;;;;;;;;;;;;;;;;;;4986605;28;20486;-58
2022/07/07 01:55:46;;;;;;;;;;;;;;;;;;4986148;28;19921;-58
2022/07/07 01:58:13;;;;;;;;;;;;;;;;;;4985885;28;19922;-60
2022/07/07 02:00:39;;;;;;;;;;;;;;;;;;4987076;28;20098;-58
2022/07/07 02:03:05;;;;;;;;;;;;;;;;;;4986582;28;20426;-58
2022/07/07 02:05:31;;;;;;;;;;;;;;;;;;4986210;28;19926;-58
2022/07/07 02:07:57;;;;;;;;;;;;;;;;;;4987415;28;19976;-58
2022/07/07 02:13:08;;;;;;;;;;;;;;;;;;4972281;28;19922;-58
2022/07/07 02:15:34;;;;;;;;;;;;;;;;;;4989861;28;19928;-58
2022/07/07 02:18:00;;;;;;;;;;;;;;;;;;4989137;28;19922;-58
2022/07/07 02:20:26;;;;;;;;;;;;;;;;;;4989250;28;20448;-57
2022/07/07 02:22:52;;;;;;;;;;;;;;;;;;4989769;28;19921;-58
2022/07/07 02:25:18;;;;;;;;;;;;;;;;;;4989665;28;19976;-58
2022/07/07 02:27:44;;;;;;;;;;;;;;;;;;4989336;28;19921;-58
2022/07/07 02:30:10;;;;;;;;;;;;;;;;;;4989986;28;19921;-58
2022/07/07 02:32:36;;;;;;;;;;;;;;;;;;4989736;28;20360;-58
2022/07/07 02:35:02;;;;;;;;;;;;;;;;;;4989673;28;19921;-58
2022/07/07 02:37:28;;;;;;;;;;;;;;;;;;4989271;28;19921;-58
2022/07/07 02:39:54;;;;;;;;;;;;;;;;;;4989280;28;19922;-58
2022/07/07 02:42:20;;;;;;;;;;;;;;;;;;4989487;28;19947;-58
2022/07/07 02:44:46;;;;;;;;;;;;;;;;;;4988833;28;20487;-58
2022/07/07 02:47:12;;;;;;;;;;;;;;;;;;4971509;28;19929;-60
2022/07/07 02:49:38;;;;;;;;;;;;;;;;;;4989871;28;19922;-58
2022/07/07 02:52:04;;;;;;;;;;;;;;;;;;4989230;28;20037;-58
2022/07/07 02:54:30;;;;;;;;;;;;;;;;;;4989226;28;19929;-59
2022/07/07 02:56:56;;;;;;;;;;;;;;;;;;4989276;28;19918;-58
2022/07/07 02:59:22;;;;;;;;;;;;;;;;;;4987813;28;19922;-59
2022/07/07 03:01:48;;;;;;;;;;;;;;;;;;4988872;28;19922;-59
2022/07/07 03:04:14;;;;;;;;;;;;;;;;;;4988920;28;20895;-59
2022/07/07 03:06:40;;;;;;;;;;;;;;;;;;4989399;28;19922;-59
2022/07/07 03:09:06;;;;;;;;;;;;;;;;;;4989484;28;19928;-58
2022/07/07 03:11:32;;;;;;;;;;;;;;;;;;4988864;28;20426;-58
2022/07/07 03:13:58;;;;;;;;;;;;;;;;;;4988295;28;19921;-58
2022/07/07 03:16:24;;;;;;;;;;;;;;;;;;4988367;28;19976;-58
2022/07/07 03:18:50;;;;;;;;;;;;;;;;;;4987988;28;19922;-58
2022/07/07 03:21:16;;;;;;;;;;;;;;;;;;4988102;28;19984;-58
2022/07/07 03:23:42;;;;;;;;;;;;;;;;;;4989089;28;20376;-58
2022/07/07 03:26:08;;;;;;;;;;;;;;;;;;4989257;28;19980;-58
2022/07/07 03:28:34;;;;;;;;;;;;;;;;;;4987763;28;20011;-58
2022/07/07 03:31:00;;;;;;;;;;;;;;;;;;4988237;28;20443;-58
2022/07/07 03:33:26;;;;;;;;;;;;;;;;;;4988583;28;19926;-58
2022/07/07 03:35:52;;;;;;;;;;;;;;;;;;4988505;28;19956;-58
2022/07/07 03:38:18;;;;;;;;;;;;;;;;;;4987903;28;19922;-58
2022/07/07 03:40:45;;;;;;;;;;;;;;;;;;4988579;28;19922;-58
2022/07/07 03:43:11;;;;;;;;;;;;;;;;;;4987469;28;19926;-59
2022/07/07 03:45:37;;;;;;;;;;;;;;;;;;4988651;28;19936;-58
2022/07/07 03:48:03;;;;;;;;;;;;;;;;;;4988243;28;20386;-58
2022/07/07 03:50:29;;;;;;;;;;;;;;;;;;4988318;28;19964;-58
2022/07/07 03:52:55;;;;;;;;;;;;;;;;;;4988379;28;20397;-58
2022/07/07 03:55:22;;;;;;;;;;;;;;;;;;4988066;28;19921;-58
2022/07/07 03:57:48;;;;;;;;;;;;;;;;;;4987150;28;19930;-58
2022/07/07 04:00:14;;;;;;;;;;;;;;;;;;4987924;28;20749;-58
2022/07/07 04:02:40;;;;;;;;;;;;;;;;;;4988542;28;19922;-59
2022/07/07 04:05:06;;;;;;;;;;;;;;;;;;4988435;28;19929;-59
2022/07/07 04:07:33;;;;;;;;;;;;;;;;;;4988065;28;19927;-58
2022/07/07 04:09:59;;;;;;;;;;;;;;;;;;4987563;28;19936;-59
2022/07/07 04:12:25;;;;;;;;;;;;;;;;;;4986795;28;19926;-59
2022/07/07 04:14:51;;;;;;;;;;;;;;;;;;4987745;28;20276;-58
2022/07/07 04:17:17;;;;;;;;;;;;;;;;;;4969355;28;19964;-59
2022/07/07 04:19:43;;;;;;;;;;;;;;;;;;4987740;28;19928;-59
2022/07/07 04:22:09;;;;;;;;;;;;;;;;;;4988233;28;19922;-58
2022/07/07 04:24:35;;;;;;;;;;;;;;;;;;4987096;28;20479;-58
2022/07/07 04:27:02;;;;;;;;;;;;;;;;;;4987679;28;19972;-58
2022/07/07 04:29:28;;;;;;;;;;;;;;;;;;4986539;28;19929;-58
2022/07/07 04:31:54;;;;;;;;;;;;;;;;;;4987021;28;19921;-58
2022/07/07 04:34:22;;;;;;;;;;;;;;;;;;4987201;28;19992;-58
2022/07/07 04:36:48;;;;;;;;;;;;;;;;;;4987552;28;19921;-58
2022/07/07 04:39:14;;;;;;;;;;;;;;;;;;4987047;28;19921;-59
2022/07/07 04:41:40;;;;;;;;;;;;;;;;;;4987805;28;19921;-58
2022/07/07 04:44:06;;;;;;;;;;;;;;;;;;4986776;28;19922;-58
2022/07/07 04:46:32;;;;;;;;;;;;;;;;;;4986848;28;20354;-58
2022/07/07 04:48:58;;;;;;;;;;;;;;;;;;4987505;28;19921;-58
2022/07/07 04:51:24;;;;;;;;;;;;;;;;;;4986151;28;20012;-58
2022/07/07 04:53:50;;;;;;;;;;;;;;;;;;4986706;28;20169;-58
2022/07/07 04:56:16;;;;;;;;;;;;;;;;;;4986895;28;19928;-58
2022/07/07 04:58:42;;;;;;;;;;;;;;;;;;4986396;28;19922;-58
2022/07/07 05:01:08;;;;;;;;;;;;;;;;;;4987230;28;20331;-58
2022/07/07 05:03:34;;;;;;;;;;;;;;;;;;4986446;28;19929;-58
2022/07/07 05:06:00;;;;;;;;;;;;;;;;;;4986690;28;19926;-58
2022/07/07 05:08:29;;;;;;;;;;;;;;;;;;4986694;28;20008;-58
2022/07/07 05:10:55;;;;;;;;;;;;;;;;;;4986688;28;19928;-58
2022/07/07 05:13:21;;;;;;;;;;;;;;;;;;4986141;28;19922;-58
2022/07/07 05:15:48;;;;;;;;;;;;;;;;;;4986727;28;20000;-58
2022/07/07 05:18:14;;;;;;;;;;;;;;;;;;4983599;28;19949;-58
2022/07/07 05:20:40;;;;;;;;;;;;;;;;;;4981905;28;20016;-58
2022/07/07 05:23:06;;;;;;;;;;;;;;;;;;4978699;28;20016;-58
2022/07/07 05:25:32;;;;;;;;;;;;;;;;;;4982895;28;20359;-58
2022/07/07 05:27:58;;;;;;;;;;;;;;;;;;4980284;28;19929;-59
2022/07/07 05:30:24;;;;;;;;;;;;;;;;;;4979501;28;19984;-58
2022/07/07 05:32:50;;;;;;;;;;;;;;;;;;4985330;28;20307;-59
2022/07/07 05:35:16;;;;;;;;;;;;;;;;;;4974321;28;19930;-59
2022/07/07 05:37:42;;;;;;;;;;;;;;;;;;4979355;28;19922;-59
2022/07/07 05:40:08;;;;;;;;;;;;;;;;;;4983785;28;19922;-59
2022/07/07 05:42:34;;;;;;;;;;;;;;;;;;4977059;28;19922;-59
2022/07/07 05:45:00;;;;;;;;;;;;;;;;;;4982243;28;19922;-59
2022/07/07 05:47:26;;;;;;;;;;;;;;;;;;4987381;28;20284;-59
2022/07/07 05:49:52;;;;;;;;;;;;;;;;;;4987000;28;19921;-59
2022/07/07 05:52:19;;;;;;;;;;;;;;;;;;4987163;28;20376;-59
2022/07/07 05:54:44;;;;;;;;;;;;;;;;;;4981343;28;19938;-59
2022/07/07 05:57:10;;;;;;;;;;;;;;;;;;4970722;28;19922;-59
2022/07/07 05:59:36;;;;;;;;;;;;;;;;;;4974284;28;20394;-59
2022/07/07 06:02:02;;;;;;;;;;;;;;;;;;4987379;28;19930;-59
2022/07/07 06:04:28;;;;;;;;;;;;;;;;;;4987583;28;20023;-58
2022/07/07 06:06:54;;;;;;;;;;;;;;;;;;4973210;28;20016;-59
2022/07/07 06:09:20;;;;;;;;;;;;;;;;;;4980326;28;20268;-59
2022/07/07 06:11:46;;;;;;;;;;;;;;;;;;4982843;28;19922;-59
2022/07/07 06:14:12;;;;;;;;;;;;;;;;;;4977934;28;20644;-59
2022/07/07 06:16:38;;;;;;;;;;;;;;;;;;4986118;28;19976;-59
2022/07/07 06:19:04;;;;;;;;;;;;;;;;;;4968820;28;20049;-58
2022/07/07 06:21:30;;;;;;;;;;;;;;;;;;4968873;28;19985;-58
2022/07/07 06:23:56;;;;;;;;;;;;;;;;;;4969228;28;19922;-58
2022/07/07 06:26:22;;;;;;;;;;;;;;;;;;4964855;28;20372;-59
2022/07/07 06:28:48;;;;;;;;;;;;;;;;;;4968381;28;19929;-59
2022/07/07 06:31:14;;;;;;;;;;;;;;;;;;4968276;28;20016;-59
2022/07/07 06:33:40;;;;;;;;;;;;;;;;;;4969519;28;19977;-59
2022/07/07 06:36:06;;;;;;;;;;;;;;;;;;4967979;28;20017;-59
2022/07/07 06:38:32;;;;;;;;;;;;;;;;;;4968510;28;20013;-58
2022/07/07 06:40:58;;;;;;;;;;;;;;;;;;4968949;28;20474;-59
2022/07/07 06:43:24;;;;;;;;;;;;;;;;;;4968243;28;19929;-59
2022/07/07 06:45:50;;;;;;;;;;;;;;;;;;4968490;28;20012;-59
2022/07/07 06:48:16;;;;;;;;;;;;;;;;;;4961621;28;20552;-58
2022/07/07 06:50:42;;;;;;;;;;;;;;;;;;4968624;28;19921;-59
2022/07/07 06:53:08;;;;;;;;;;;;;;;;;;4968707;28;20056;-59
2022/07/07 06:55:34;;;;;;;;;;;;;;;;;;4966640;28;19976;-59
2022/07/07 06:58:02;;;;;;;;;;;;;;;;;;4968090;28;20545;-59
2022/07/07 07:00:28;;;;;;;;;;;;;;;;;;4967931;28;20419;-59
2022/07/07 07:02:54;;;;;;;;;;;;;;;;;;4968417;28;20013;-59
2022/07/07 07:05:20;;;;;;;;;;;;;;;;;;4968203;28;19921;-59
2022/07/07 07:07:46;;;;;;;;;;;;;;;;;;4968217;28;19921;-59
2022/07/07 07:10:12;;;;;;;;;;;;;;;;;;4968318;28;19922;-60
2022/07/07 07:12:38;;;;;;;;;;;;;;;;;;4968219;28;20399;-59
2022/07/07 07:15:04;;;;;;;;;;;;;;;;;;4968642;28;20388;-59
2022/07/07 07:17:30;;;;;;;;;;;;;;;;;;4974374;28;20000;-59
2022/07/07 07:19:56;;;;;;;;;;;;;;;;;;4980802;28;19972;-59
2022/07/07 07:22:22;;;;;;;;;;;;;;;;;;4969233;28;19956;-59
2022/07/07 07:24:48;;;;;;;;;;;;;;;;;;4969103;28;19929;-59
2022/07/07 07:27:14;;;;;;;;;;;;;;;;;;4975430;28;19918;-59
2022/07/07 07:29:40;;;;;;;;;;;;;;;;;;4974768;28;20433;-59
2022/07/07 07:32:06;;;;;;;;;;;;;;;;;;4986325;28;19966;-59
2022/07/07 07:34:32;;;;;;;;;;;;;;;;;;4981143;28;19933;-59
2022/07/07 07:36:58;;;;;;;;;;;;;;;;;;4972780;28;19921;-59
2022/07/07 07:39:24;;;;;;;;;;;;;;;;;;4981443;28;20476;-59
2022/07/07 07:41:50;;;;;;;;;;;;;;;;;;4968397;28;20060;-60
2022/07/07 07:45:09;;;;;;;;;;;;;;;;;;4968837;28;19928;-59
2022/07/07 07:47:02;;;;;;;;;;;;;;;;;;4968914;28;19922;-59
2022/07/07 07:49:28;;;;;;;;;;;;;;;;;;4974689;28;19929;-59
2022/07/07 07:51:54;;;;;;;;;;;;;;;;;;4974386;28;19922;-59
2022/07/07 07:54:20;;;;;;;;;;;;;;;;;;4969094;28;19922;-59
2022/07/07 07:56:47;;;;;;;;;;;;;;;;;;4985339;28;19917;-61
2022/07/07 07:59:13;;;;;;;;;;;;;;;;;;4979998;28;20007;-59
2022/07/07 08:01:39;;;;;;;;;;;;;;;;;;4979621;28;20375;-59
2022/07/07 08:04:05;;;;;;;;;;;;;;;;;;4976022;28;19969;-59
2022/07/07 08:06:32;;;;;;;;;;;;;;;;;;4967955;28;20462;-59
2022/07/07 08:08:58;;;;;;;;;;;;;;;;;;4968895;28;19922;-59
2022/07/07 08:11:24;;;;;;;;;;;;;;;;;;4978836;28;20296;-59
2022/07/07 08:13:50;;;;;;;;;;;;;;;;;;4985028;28;19934;-59
2022/07/07 08:16:16;;;;;;;;;;;;;;;;;;4984845;28;19926;-59
2022/07/07 08:18:42;;;;;;;;;;;;;;;;;;4984603;28;20396;-60
2022/07/07 08:21:08;;;;;;;;;;;;;;;;;;4978916;28;19922;-59
2022/07/07 08:23:34;;;;;;;;;;;;;;;;;;4986732;28;20470;-59
2022/07/07 08:26:01;;;;;;;;;;;;;;;;;;4964293;28;19929;-59
2022/07/07 08:28:26;;;;;;;;;;;;;;;;;;4980632;28;20454;-60
2022/07/07 08:30:52;;;;;;;;;;;;;;;;;;4969084;28;20414;-59
2022/07/07 08:33:18;;;;;;;;;;;;;;;;;;4967966;28;20545;-59
2022/07/07 08:35:44;;;;;;;;;;;;;;;;;;4968039;28;20359;-59
2022/07/07 08:38:10;;;;;;;;;;;;;;;;;;4971937;28;19928;-59
2022/07/07 08:40:36;;;;;;;;;;;;;;;;;;4981363;28;19980;-59
2022/07/07 08:43:02;;;;;;;;;;;;;;;;;;4984218;28;19922;-59
2022/07/07 08:45:28;;;;;;;;;;;;;;;;;;4984533;28;20021;-59
2022/07/07 08:47:54;;;;;;;;;;;;;;;;;;4982805;28;20367;-59
2022/07/07 08:50:20;;;;;;;;;;;;;;;;;;4977281;28;19922;-59
2022/07/07 08:52:50;;;;;;;;;;;;;;;;;;4984631;28;19922;-59
2022/07/07 08:55:17;;;;;;;;;;;;;;;;;;4981108;28;20024;-59
2022/07/07 08:57:43;;;;;;;;;;;;;;;;;;4980384;28;20004;-59
2022/07/07 09:00:09;;;;;;;;;;;;;;;;;;4974575;28;19961;-59
2022/07/07 09:02:35;;;;;;;;;;;;;;;;;;4967407;28;20753;-59
2022/07/07 09:05:01;;;;;;;;;;;;;;;;;;4981203;28;20152;-59
2022/07/07 09:07:26;;;;;;;;;;;;;;;;;;4982497;28;19926;-59
2022/07/07 09:09:52;;;;;;;;;;;;;;;;;;4977743;28;19918;-59
2022/07/07 09:12:19;;;;;;;;;;;;;;;;;;4982162;28;19929;-59
2022/07/07 09:14:45;;;;;;;;;;;;;;;;;;4984872;28;19934;-59
2022/07/07 09:17:11;;;;;;;;;;;;;;;;;;4980763;28;19922;-59
2022/07/07 09:19:37;;;;;;;;;;;;;;;;;;4978248;28;19945;-59
2022/07/07 09:22:02;;;;;;;;;;;;;;;;;;4984897;28;19996;-59
2022/07/07 09:24:28;;;;;;;;;;;;;;;;;;4984123;28;20754;-59
2022/07/07 09:26:54;;;;;;;;;;;;;;;;;;4982960;28;19921;-60
2022/07/07 09:29:20;;;;;;;;;;;;;;;;;;4976826;28;20387;-59
2022/07/07 09:31:46;;;;;;;;;;;;;;;;;;4983822;28;19930;-60
2022/07/07 09:34:12;;;;;;;;;;;;;;;;;;4972666;28;20026;-60
2022/07/07 09:39:23;;;;;;;;;;;;;;;;;;4978957;28;19972;-59
2022/07/07 09:41:49;;;;;;;;;;;;;;;;;;4966906;28;19926;-59
2022/07/07 09:44:16;;;;;;;;;;;;;;;;;;4967325;28;19930;-59
2022/07/07 09:46:42;;;;;;;;;;;;;;;;;;4967093;28;19922;-59
2022/07/07 09:49:08;;;;;;;;;;;;;;;;;;4978279;28;20008;-59
2022/07/07 09:51:34;;;;;;;;;;;;;;;;;;4967268;28;19929;-59
2022/07/07 09:54:00;;;;;;;;;;;;;;;;;;4967667;28;19957;-59
2022/07/07 09:56:27;;;;;;;;;;;;;;;;;;4970338;28;19922;-59
2022/07/07 09:58:53;;;;;;;;;;;;;;;;;;4968702;28;19929;-59
2022/07/07 10:01:21;;;;;;;;;;;;;;;;;;4967032;28;19926;-59
2022/07/07 10:03:47;;;;;;;;;;;;;;;;;;4967236;28;19918;-59
2022/07/07 10:06:13;;;;;;;;;;;;;;;;;;4974858;28;19929;-60
2022/07/07 10:08:39;;;;;;;;;;;;;;;;;;4978352;28;19922;-59
2022/07/07 10:11:04;;;;;;;;;;;;;;;;;;4974078;28;19926;-59
2022/07/07 10:13:30;;;;;;;;;;;;;;;;;;4966052;28;19988;-59
2022/07/07 10:15:56;;;;;;;;;;;;;;;;;;4967325;28;19914;-59
2022/07/07 10:18:22;;;;;;;;;;;;;;;;;;4983905;28;19964;-59
2022/07/07 10:20:48;;;;;;;;;;;;;;;;;;4966169;28;20870;-59
2022/07/07 10:23:14;;;;;;;;;;;;;;;;;;4966888;28;19930;-60
2022/07/07 10:25:40;;;;;;;;;;;;;;;;;;4967661;28;20005;-59
2022/07/07 10:28:06;;;;;;;;;;;;;;;;;;4973380;28;20414;-59
2022/07/07 10:30:33;;;;;;;;;;;;;;;;;;4970346;28;20008;-59
2022/07/07 10:32:59;;;;;;;;;;;;;;;;;;4970406;28;20072;-59
2022/07/07 10:35:25;;;;;;;;;;;;;;;;;;4969873;28;19922;-59
2022/07/07 10:37:51;;;;;;;;;;;;;;;;;;4977141;28;19929;-59
2022/07/07 10:40:17;;;;;;;;;;;;;;;;;;4984270;28;20123;-59
2022/07/07 10:42:43;;;;;;;;;;;;;;;;;;4986262;28;19929;-60
2022/07/07 10:45:10;;;;;;;;;;;;;;;;;;4987728;28;20534;-59
2022/07/07 10:47:36;;;;;;;;;;;;;;;;;;4974680;28;19933;-59
2022/07/07 10:50:02;;;;;;;;;;;;;;;;;;4977353;28;19984;-59
2022/07/07 10:52:28;;;;;;;;;;;;;;;;;;4986301;28;20314;-59
2022/07/07 10:54:54;;;;;;;;;;;;;;;;;;4978868;28;19922;-59
2022/07/07 10:57:20;;;;;;;;;;;;;;;;;;4982536;28;19945;-59
2022/07/07 10:59:46;;;;;;;;;;;;;;;;;;4976867;28;19949;-59
2022/07/07 11:02:13;;;;;;;;;;;;;;;;;;4980214;28;20665;-60
2022/07/07 11:04:39;;;;;;;;;;;;;;;;;;4981337;28;19926;-59
2022/07/07 11:07:05;;;;;;;;;;;;;;;;;;4982903;28;19928;-59
2022/07/07 11:09:30;;;;;;;;;;;;;;;;;;4982372;28;19926;-60
2022/07/07 11:11:56;;;;;;;;;;;;;;;;;;4980051;28;20052;-59
2022/07/07 11:14:22;;;;;;;;;;;;;;;;;;4983268;28;19929;-60
2022/07/07 11:16:49;;;;;;;;;;;;;;;;;;4974973;28;20715;-59
2022/07/07 11:19:15;;;;;;;;;;;;;;;;;;4976961;28;19930;-59
2022/07/07 11:21:41;;;;;;;;;;;;;;;;;;4977507;28;19928;-60
2022/07/07 11:24:07;;;;;;;;;;;;;;;;;;4981195;28;19929;-59
2022/07/07 11:26:34;;;;;;;;;;;;;;;;;;4983765;28;19925;-59
2022/07/07 11:29:01;;;;;;;;;;;;;;;;;;4984642;28;19969;-60
2022/07/07 11:31:27;;;;;;;;;;;;;;;;;;4979023;28;19952;-60
2022/07/07 11:33:53;;;;;;;;;;;;;;;;;;4980777;28;20276;-59
2022/07/07 11:36:19;;;;;;;;;;;;;;;;;;4984487;28;20394;-59
2022/07/07 11:38:45;;;;;;;;;;;;;;;;;;4981531;28;19933;-60
2022/07/07 11:41:12;;;;;;;;;;;;;;;;;;4977291;28;19976;-61
2022/07/07 11:43:38;;;;;;;;;;;;;;;;;;4983919;28;19958;-59
2022/07/07 11:46:04;;;;;;;;;;;;;;;;;;4986303;28;19922;-59
2022/07/07 11:48:30;;;;;;;;;;;;;;;;;;4973030;28;19922;-59
2022/07/07 11:50:56;;;;;;;;;;;;;;;;;;4976527;28;20023;-59
2022/07/07 11:53:22;;;;;;;;;;;;;;;;;;4979782;28;19929;-59
2022/07/07 11:55:48;;;;;;;;;;;;;;;;;;4979282;28;19945;-59
2022/07/07 11:58:14;;;;;;;;;;;;;;;;;;4985330;28;20291;-60
2022/07/07 12:00:40;;;;;;;;;;;;;;;;;;4986297;28;19964;-59
2022/07/07 12:03:06;;;;;;;;;;;;;;;;;;4975847;28;19925;-59
2022/07/07 12:05:32;;;;;;;;;;;;;;;;;;4986918;28;20350;-59
2022/07/07 12:07:58;;;;;;;;;;;;;;;;;;4977708;28;19964;-59
2022/07/07 12:10:24;;;;;;;;;;;;;;;;;;4972150;28;20368;-59
2022/07/07 12:12:50;;;;;;;;;;;;;;;;;;4983124;28;19921;-60
2022/07/07 12:15:16;;;;;;;;;;;;;;;;;;4977502;28;20370;-60
2022/07/07 12:17:42;;;;;;;;;;;;;;;;;;4978160;28;20399;-60
2022/07/07 12:20:08;;;;;;;;;;;;;;;;;;4986011;28;19928;-60
2022/07/07 12:22:36;;;;;;;;;;;;;;;;;;4984100;28;19922;-60
2022/07/07 12:25:02;;;;;;;;;;;;;;;;;;4985020;28;19997;-60
2022/07/07 12:27:28;;;;;;;;;;;;;;;;;;4985037;28;19922;-60
2022/07/07 12:29:54;;;;;;;;;;;;;;;;;;4986082;28;19928;-60
2022/07/07 12:32:20;;;;;;;;;;;;;;;;;;4985591;28;19930;-59
2022/07/07 12:34:48;;;;;;;;;;;;;;;;;;4985888;28;19930;-60
2022/07/07 12:37:14;;;;;;;;;;;;;;;;;;4985425;28;19918;-61
2022/07/07 12:39:40;;;;;;;;;;;;;;;;;;4986763;28;20372;-60
2022/07/07 12:42:06;;;;;;;;;;;;;;;;;;4985863;28;19932;-60
2022/07/07 12:44:32;;;;;;;;;;;;;;;;;;4985730;28;20380;-60
2022/07/07 12:46:59;;;;;;;;;;;;;;;;;;4985363;28;20395;-60
2022/07/07 12:49:25;;;;;;;;;;;;;;;;;;4985596;28;19953;-60
2022/07/07 12:51:51;;;;;;;;;;;;;;;;;;4985774;28;20016;-60
2022/07/07 12:54:17;;;;;;;;;;;;;;;;;;4981804;28;19930;-60
2022/07/07 12:56:43;;;;;;;;;;;;;;;;;;4981923;28;19980;-61
2022/07/07 12:59:09;;;;;;;;;;;;;;;;;;4986252;28;19967;-60
2022/07/07 13:01:35;;;;;;;;;;;;;;;;;;4983422;28;19929;-59
2022/07/07 13:04:01;;;;;;;;;;;;;;;;;;4974205;28;19953;-60
2022/07/07 13:06:27;;;;;;;;;;;;;;;;;;4980367;28;19923;-60
2022/07/07 13:08:54;;;;;;;;;;;;;;;;;;4978416;28;19925;-60
2022/07/07 13:11:20;;;;;;;;;;;;;;;;;;4977585;28;19925;-61
2022/07/07 13:13:46;;;;;;;;;;;;;;;;;;4981743;28;19969;-61
2022/07/07 13:16:12;;;;;;;;;;;;;;;;;;4979566;28;19972;-61
2022/07/07 13:18:38;;;;;;;;;;;;;;;;;;4982985;28;19972;-60
2022/07/07 13:21:04;;;;;;;;;;;;;;;;;;4983727;28;19921;-61
2022/07/07 13:23:30;;;;;;;;;;;;;;;;;;4978000;28;19993;-59
2022/07/07 13:25:57;;;;;;;;;;;;;;;;;;4981869;28;19914;-60
2022/07/07 13:28:23;;;;;;;;;;;;;;;;;;4980911;28;20157;-59
2022/07/07 13:30:49;;;;;;;;;;;;;;;;;;4983094;28;19969;-60
2022/07/07 13:33:15;;;;;;;;;;;;;;;;;;4982248;28;19926;-60
2022/07/07 13:35:41;;;;;;;;;;;;;;;;;;4982829;28;19921;-61
2022/07/07 13:38:07;;;;;;;;;;;;;;;;;;4985060;28;19922;-60
2022/07/07 13:40:33;;;;;;;;;;;;;;;;;;4982979;28;19929;-60
2022/07/07 13:42:59;;;;;;;;;;;;;;;;;;4981543;28;19930;-60
2022/07/07 13:45:25;;;;;;;;;;;;;;;;;;4980846;28;19980;-60
2022/07/07 13:47:51;;;;;;;;;;;;;;;;;;4980887;28;20371;-60
2022/07/07 13:50:18;;;;;;;;;;;;;;;;;;4981294;28;19930;-60
2022/07/07 13:52:44;;;;;;;;;;;;;;;;;;4980986;28;19953;-60
2022/07/07 13:55:10;;;;;;;;;;;;;;;;;;4982877;28;19926;-59
2022/07/07 13:57:36;;;;;;;;;;;;;;;;;;4979978;28;20438;-60
2022/07/07 14:00:02;;;;;;;;;;;;;;;;;;4969047;28;19926;-60
2022/07/07 14:02:28;;;;;;;;;;;;;;;;;;4967859;28;19926;-60
2022/07/07 14:04:54;;;;;;;;;;;;;;;;;;4967292;28;19926;-60
2022/07/07 14:07:20;;;;;;;;;;;;;;;;;;4973361;28;19932;-60
2022/07/07 14:09:46;;;;;;;;;;;;;;;;;;4986656;28;19925;-60
2022/07/07 14:12:12;;;;;;;;;;;;;;;;;;4978768;28;19953;-61
2022/07/07 14:14:38;;;;;;;;;;;;;;;;;;4978653;28;19926;-60
2022/07/07 14:17:04;;;;;;;;;;;;;;;;;;4986500;28;19925;-60
2022/07/07 14:19:30;;;;;;;;;;;;;;;;;;4986595;28;20731;-60
2022/07/07 14:21:56;;;;;;;;;;;;;;;;;;4986765;28;19917;-59
2022/07/07 14:24:22;;;;;;;;;;;;;;;;;;4986499;28;19921;-60
2022/07/07 14:26:48;;;;;;;;;;;;;;;;;;4983944;28;19932;-60
2022/07/07 14:29:15;;;;;;;;;;;;;;;;;;4986117;28;19928;-60
2022/07/07 14:31:41;;;;;;;;;;;;;;;;;;4969344;28;19968;-60
2022/07/07 14:34:07;;;;;;;;;;;;;;;;;;4986523;28;19926;-60
2022/07/07 14:36:33;;;;;;;;;;;;;;;;;;4977643;28;19922;-60
2022/07/07 14:38:59;;;;;;;;;;;;;;;;;;4967990;28;19929;-60
2022/07/07 14:41:25;;;;;;;;;;;;;;;;;;4979055;28;19925;-60
2022/07/07 14:43:51;;;;;;;;;;;;;;;;;;4962118;28;19922;-60
2022/07/07 14:46:17;;;;;;;;;;;;;;;;;;4977211;28;19922;-60
2022/07/07 14:48:43;;;;;;;;;;;;;;;;;;4984487;28;19922;-60
2022/07/07 14:51:09;;;;;;;;;;;;;;;;;;4987650;28;20328;-59
2022/07/07 14:53:35;;;;;;;;;;;;;;;;;;4986769;28;19922;-60
2022/07/07 14:56:01;;;;;;;;;;;;;;;;;;4981494;28;19926;-60
2022/07/07 14:58:27;;;;;;;;;;;;;;;;;;4974171;28;19922;-60
2022/07/07 15:00:53;;;;;;;;;;;;;;;;;;4969779;28;20367;-60
2022/07/07 15:03:20;;;;;;;;;;;;;;;;;;4970002;28;19960;-60
2022/07/07 15:05:46;;;;;;;;;;;;;;;;;;4976330;28;19984;-60
2022/07/07 15:08:12;;;;;;;;;;;;;;;;;;4986548;28;20568;-60
2022/07/07 15:10:38;;;;;;;;;;;;;;;;;;4973270;28;19922;-60
2022/07/07 15:13:04;;;;;;;;;;;;;;;;;;4976122;28;19929;-60
2022/07/07 15:15:30;;;;;;;;;;;;;;;;;;4980577;28;19945;-60
2022/07/07 15:17:56;;;;;;;;;;;;;;;;;;4968979;28;19922;-60
2022/07/07 15:20:22;;;;;;;;;;;;;;;;;;4970982;28;19922;-60
2022/07/07 15:22:48;;;;;;;;;;;;;;;;;;4977696;28;19968;-60
2022/07/07 15:25:14;;;;;;;;;;;;;;;;;;4985524;28;20416;-60
2022/07/07 15:27:40;;;;;;;;;;;;;;;;;;4986542;28;20387;-60
2022/07/07 15:30:06;;;;;;;;;;;;;;;;;;4986849;28;19969;-60
2022/07/07 15:32:32;;;;;;;;;;;;;;;;;;4985644;28;19969;-60
2022/07/07 15:34:58;;;;;;;;;;;;;;;;;;4982468;28;20394;-59
2022/07/07 15:37:25;;;;;;;;;;;;;;;;;;4982625;28;19933;-60
2022/07/07 15:39:51;;;;;;;;;;;;;;;;;;4969293;28;19922;-60
2022/07/07 15:42:17;;;;;;;;;;;;;;;;;;4968500;28;20442;-59
2022/07/07 15:44:43;;;;;;;;;;;;;;;;;;4974273;28;19922;-60
2022/07/07 15:47:09;;;;;;;;;;;;;;;;;;4985502;28;20046;-59
2022/07/07 15:49:35;;;;;;;;;;;;;;;;;;4970718;28;20396;-60
2022/07/07 15:52:01;;;;;;;;;;;;;;;;;;4968846;28;19926;-60
2022/07/07 15:54:27;;;;;;;;;;;;;;;;;;4974880;28;19921;-60
2022/07/07 15:56:53;;;;;;;;;;;;;;;;;;4969128;28;19922;-60
2022/07/07 15:59:19;;;;;;;;;;;;;;;;;;4972105;28;19922;-60
2022/07/07 16:01:45;;;;;;;;;;;;;;;;;;4975679;28;19922;-60
2022/07/07 16:06:56;;;;;;;;;;;;;;;;;;4985620;28;19992;-59
2022/07/07 16:09:22;;;;;;;;;;;;;;;;;;4986118;28;20351;-60
2022/07/07 16:11:48;;;;;;;;;;;;;;;;;;4980729;28;20020;-60
2022/07/07 16:14:15;;;;;;;;;;;;;;;;;;4962986;28;20021;-60
2022/07/07 16:16:41;;;;;;;;;;;;;;;;;;4978932;28;19918;-61
2022/07/07 16:19:07;;;;;;;;;;;;;;;;;;4974305;28;19985;-60
2022/07/07 16:21:33;;;;;;;;;;;;;;;;;;4984555;28;20327;-60
2022/07/07 16:24:00;;;;;;;;;;;;;;;;;;4981392;28;20336;-60
2022/07/07 16:26:26;;;;;;;;;;;;;;;;;;4981247;28;20004;-59
2022/07/07 16:28:52;;;;;;;;;;;;;;;;;;4982316;28;20456;-60
2022/07/07 16:31:18;;;;;;;;;;;;;;;;;;4968749;28;19936;-60
2022/07/07 16:33:44;;;;;;;;;;;;;;;;;;4972189;28;19929;-59
2022/07/07 16:36:10;;;;;;;;;;;;;;;;;;4980520;28;20598;-60
2022/07/07 16:38:37;;;;;;;;;;;;;;;;;;4967989;28;19973;-59
2022/07/07 16:41:03;;;;;;;;;;;;;;;;;;4971954;28;19928;-60
2022/07/07 16:43:32;;;;;;;;;;;;;;;;;;4982864;28;20964;-60
2022/07/07 16:45:58;;;;;;;;;;;;;;;;;;4984072;28;19926;-60